Time;durP1;ratioP1;P1;durP2;ratioP2;P2;SDS_P1;SDS_P2;PMS_P1;PMS_P2;Temp;Humidity;BMP_temperature;BMP_pressure;BME280_temperature;BME280_humidity;BME280_pressure;Samples;Min_cycle;Max_cycle;Signal;HPM_P1;HPM_P2
2024/01/31 00:01:34;;;;;;;;;;;7.40;92.00;;;;;;5121834;27;19969;-73
2024/01/31 00:04:07;;;;;;;;;;;7.30;91.90;;;;;;5129689;27;19924;-73
2024/01/31 00:06:41;;;;;;;;;;;7.30;91.90;;;;;;5127449;27;20392;-74
2024/01/31 00:09:14;;;;;;;;;;;7.30;91.90;;;;;;5129962;27;19934;-73
2024/01/31 00:11:47;;;;;;;;;;;7.30;91.90;;;;;;5138425;27;20403;-73
2024/01/31 00:14:21;;;;;;;;;;;7.30;92.00;;;;;;5124275;27;19927;-74
2024/01/31 00:16:55;;;;;;;;;;;7.30;91.90;;;;;;5122433;27;19928;-73
2024/01/31 00:19:28;;;;;;;;;;;7.30;91.90;;;;;;5121072;27;20802;-73
2024/01/31 00:22:01;;;;;;;;;;;7.30;91.90;;;;;;5125905;27;20426;-74
2024/01/31 00:24:34;;;;;;;;;;;7.30;92.00;;;;;;5130253;27;20285;-74
2024/01/31 00:27:07;;;;;;;;;;;7.30;91.90;;;;;;5143617;27;19966;-75
2024/01/31 00:29:47;;;;;;;;;;;7.30;91.90;;;;;;5137133;27;19955;-75
2024/01/31 00:32:21;;;;;;;;;;;7.30;91.90;;;;;;5116027;27;20373;-75
2024/01/31 00:34:55;;;;;;;;;;;7.20;91.90;;;;;;5122994;27;20022;-73
2024/01/31 00:37:28;;;;;;;;;;;7.20;91.90;;;;;;5121304;27;19924;-73
2024/01/31 00:40:01;;;;;;;;;;;7.20;92.00;;;;;;5136807;27;19938;-62
2024/01/31 00:42:37;;;;;;;;;;;7.20;91.90;;;;;;5140670;27;19934;-71
2024/01/31 00:45:13;;;;;;;;;;;7.20;91.90;;;;;;5135566;27;19968;-73
2024/01/31 00:47:48;;;;;;;;;;;7.20;91.90;;;;;;5123005;27;19934;-73
2024/01/31 00:50:22;;;;;;;;;;;7.20;92.00;;;;;;5123390;27;19972;-74
2024/01/31 00:52:49;;;;;;;;;;;7.20;91.90;;;;;;5123717;27;20409;-75
2024/01/31 00:55:22;;;;;;;;;;;7.20;91.90;;;;;;5133348;27;19923;-75
2024/01/31 00:57:55;;;;;;;;;;;7.20;91.90;;;;;;5135496;27;19932;-74
2024/01/31 01:00:28;;;;;;;;;;;7.20;91.90;;;;;;5140019;27;19930;-74
2024/01/31 01:03:02;;;;;;;;;;;7.10;92.10;;;;;;5131289;27;19923;-73
2024/01/31 01:05:35;;;;;;;;;;;7.10;92.00;;;;;;5125726;27;19932;-72
2024/01/31 01:08:08;;;;;;;;;;;7.10;91.90;;;;;;5118573;27;19928;-73
2024/01/31 01:10:41;;;;;;;;;;;7.10;91.90;;;;;;5140354;27;19941;-75
2024/01/31 01:13:14;;;;;;;;;;;7.10;91.90;;;;;;5139421;27;19930;-77
2024/01/31 01:15:47;;;;;;;;;;;7.10;92.00;;;;;;5109749;27;19938;-74
2024/01/31 01:18:21;;;;;;;;;;;7.10;92.10;;;;;;5136392;27;20294;-73
2024/01/31 01:20:55;;;;;;;;;;;7.10;92.00;;;;;;5140162;27;19926;-75
2024/01/31 01:23:28;;;;;;;;;;;7.10;91.90;;;;;;5121567;27;20011;-74
2024/01/31 01:26:01;;;;;;;;;;;7.10;91.90;;;;;;5135690;27;20396;-73
2024/01/31 01:28:34;;;;;;;;;;;7.10;92.00;;;;;;5130371;27;20285;-75
2024/01/31 01:31:07;;;;;;;;;;;7.10;91.90;;;;;;5122063;27;20024;-73
2024/01/31 01:33:42;;;;;;;;;;;7.10;92.00;;;;;;5122984;27;20296;-74
2024/01/31 01:36:16;;;;;;;;;;;7.10;91.90;;;;;;5130269;27;19928;-75
2024/01/31 01:38:49;;;;;;;;;;;7.00;91.90;;;;;;5122323;27;20006;-73
2024/01/31 01:41:22;;;;;;;;;;;7.10;91.80;;;;;;5123988;27;20387;-79
2024/01/31 01:43:55;;;;;;;;;;;7.00;91.90;;;;;;5131849;27;19999;-73
2024/01/31 01:46:28;;;;;;;;;;;7.00;91.90;;;;;;5142365;27;19930;-74
2024/01/31 01:49:03;;;;;;;;;;;7.00;92.00;;;;;;5140143;27;19930;-74
2024/01/31 01:51:36;;;;;;;;;;;7.00;91.90;;;;;;5142524;27;20042;-61
2024/01/31 01:54:12;;;;;;;;;;;7.00;91.80;;;;;;5143529;27;19923;-61
2024/01/31 01:56:46;;;;;;;;;;;7.00;91.90;;;;;;5123261;27;19963;-62
2024/01/31 01:59:19;;;;;;;;;;;6.90;91.80;;;;;;5127185;27;20010;-62
2024/01/31 02:01:52;;;;;;;;;;;7.00;91.70;;;;;;5115985;27;19976;-62
2024/01/31 02:04:28;;;;;;;;;;;6.90;91.80;;;;;;5129173;27;19966;-62
2024/01/31 02:07:02;;;;;;;;;;;7.00;91.80;;;;;;5120694;27;19932;-63
2024/01/31 02:09:35;;;;;;;;;;;6.90;91.70;;;;;;5121954;27;19934;-64
2024/01/31 02:12:10;;;;;;;;;;;6.90;91.80;;;;;;5126880;27;20042;-61
2024/01/31 02:14:44;;;;;;;;;;;6.90;91.70;;;;;;5119940;27;19931;-62
2024/01/31 02:17:18;;;;;;;;;;;6.90;91.80;;;;;;5119611;27;19980;-61
2024/01/31 02:19:52;;;;;;;;;;;6.90;91.80;;;;;;5118429;27;19998;-61
2024/01/31 02:22:26;;;;;;;;;;;6.90;91.90;;;;;;5120377;27;19930;-61
2024/01/31 02:25:01;;;;;;;;;;;6.90;91.90;;;;;;5141710;27;20018;-62
2024/01/31 02:27:34;;;;;;;;;;;6.90;91.80;;;;;;5141491;27;19931;-62
2024/01/31 02:30:01;;;;;;;;;;;6.90;91.80;;;;;;5141814;27;19943;-63
2024/01/31 02:32:34;;;;;;;;;;;6.90;91.80;;;;;;5141749;27;20390;-62
2024/01/31 02:35:07;;;;;;;;;;;6.90;91.90;;;;;;5141085;27;19924;-61
2024/01/31 02:37:35;;;;;;;;;;;6.90;91.80;;;;;;5142720;27;19938;-62
2024/01/31 02:40:09;;;;;;;;;;;6.90;91.80;;;;;;5139644;27;19949;-63
2024/01/31 02:42:42;;;;;;;;;;;6.90;91.80;;;;;;5143923;27;20014;-62
2024/01/31 02:45:15;;;;;;;;;;;6.90;91.90;;;;;;5144154;27;19931;-62
2024/01/31 02:47:48;;;;;;;;;;;6.90;91.70;;;;;;5145883;27;19933;-62
2024/01/31 02:50:15;;;;;;;;;;;6.90;91.70;;;;;;5145713;27;19987;-63
2024/01/31 02:52:49;;;;;;;;;;;6.90;91.70;;;;;;5146212;27;19934;-63
2024/01/31 02:55:23;;;;;;;;;;;6.90;91.80;;;;;;5146554;27;19951;-62
2024/01/31 02:57:56;;;;;;;;;;;6.80;91.80;;;;;;5145258;27;19946;-63
2024/01/31 03:00:29;;;;;;;;;;;6.90;91.80;;;;;;5134100;27;19927;-63
2024/01/31 03:03:02;;;;;;;;;;;6.80;91.80;;;;;;5122239;27;19931;-64
2024/01/31 03:05:36;;;;;;;;;;;6.80;91.80;;;;;;5140743;27;19928;-64
2024/01/31 03:08:10;;;;;;;;;;;6.80;91.80;;;;;;5137734;27;19927;-66
2024/01/31 03:10:46;;;;;;;;;;;6.70;91.80;;;;;;5145054;27;19990;-64
2024/01/31 03:13:20;;;;;;;;;;;6.70;91.80;;;;;;5145245;27;19929;-65
2024/01/31 03:15:53;;;;;;;;;;;6.70;91.80;;;;;;5145348;27;20429;-65
2024/01/31 03:18:26;;;;;;;;;;;6.70;91.80;;;;;;5136456;27;19924;-66
2024/01/31 03:20:59;;;;;;;;;;;6.70;91.80;;;;;;5135364;27;19984;-64
2024/01/31 03:23:33;;;;;;;;;;;6.70;91.70;;;;;;5144112;27;19973;-64
2024/01/31 03:26:07;;;;;;;;;;;6.70;91.80;;;;;;5137187;27;19923;-65
2024/01/31 03:28:40;;;;;;;;;;;6.70;91.70;;;;;;5144206;27;20433;-64
2024/01/31 03:31:13;;;;;;;;;;;6.70;91.80;;;;;;5145913;27;19923;-66
2024/01/31 03:33:46;;;;;;;;;;;6.70;91.70;;;;;;5144691;27;19923;-65
2024/01/31 03:36:19;;;;;;;;;;;6.60;91.70;;;;;;5145048;27;19926;-63
2024/01/31 03:38:54;;;;;;;;;;;6.60;91.70;;;;;;5143613;27;19928;-64
2024/01/31 03:41:27;;;;;;;;;;;6.60;91.70;;;;;;5144239;27;19934;-64
2024/01/31 03:44:01;;;;;;;;;;;6.60;91.80;;;;;;5123734;27;20038;-65
2024/01/31 03:46:35;;;;;;;;;;;6.60;91.80;;;;;;5127517;27;19923;-65
2024/01/31 03:49:08;;;;;;;;;;;6.60;91.80;;;;;;5124558;27;20324;-65
2024/01/31 03:51:41;;;;;;;;;;;6.60;91.80;;;;;;5138894;27;20005;-64
2024/01/31 03:54:15;;;;;;;;;;;6.60;91.70;;;;;;5138456;27;19923;-65
2024/01/31 03:56:42;;;;;;;;;;;6.60;91.70;;;;;;5125724;27;19931;-64
2024/01/31 03:59:15;;;;;;;;;;;6.50;91.70;;;;;;5128867;27;19996;-65
2024/01/31 04:01:49;;;;;;;;;;;6.50;91.70;;;;;;5132752;27;20568;-64
2024/01/31 04:04:22;;;;;;;;;;;6.50;91.70;;;;;;5131598;27;19975;-65
2024/01/31 04:07:00;;;;;;;;;;;6.50;91.70;;;;;;5132973;27;19932;-64
2024/01/31 04:09:35;;;;;;;;;;;6.50;91.80;;;;;;5132154;27;19928;-66
2024/01/31 04:12:09;;;;;;;;;;;6.50;91.80;;;;;;5124215;27;19995;-61
2024/01/31 04:14:42;;;;;;;;;;;6.40;91.70;;;;;;5132738;27;19933;-65
2024/01/31 04:17:15;;;;;;;;;;;6.50;91.80;;;;;;5128133;27;19927;-62
2024/01/31 04:19:48;;;;;;;;;;;6.50;91.80;;;;;;5142714;27;19983;-62
2024/01/31 04:22:22;;;;;;;;;;;6.50;91.70;;;;;;5143192;27;19935;-61
2024/01/31 04:24:56;;;;;;;;;;;6.50;91.70;;;;;;5144628;27;19931;-62
2024/01/31 04:27:30;;;;;;;;;;;6.50;91.70;;;;;;5142570;27;19968;-62
2024/01/31 04:30:03;;;;;;;;;;;6.40;91.80;;;;;;5144914;27;19927;-63
2024/01/31 04:32:37;;;;;;;;;;;6.40;91.80;;;;;;5144615;27;19979;-62
2024/01/31 04:35:12;;;;;;;;;;;6.40;91.70;;;;;;5144452;27;19931;-61
2024/01/31 04:37:45;;;;;;;;;;;6.40;91.60;;;;;;5142877;27;19934;-62
2024/01/31 04:40:19;;;;;;;;;;;6.40;91.70;;;;;;5143564;27;19930;-63
2024/01/31 04:42:53;;;;;;;;;;;6.30;91.60;;;;;;5142969;27;20018;-62
2024/01/31 04:45:26;;;;;;;;;;;6.30;91.60;;;;;;5141681;27;19927;-63
2024/01/31 04:47:59;;;;;;;;;;;6.30;91.50;;;;;;5143151;27;19930;-62
2024/01/31 04:50:32;;;;;;;;;;;6.30;91.60;;;;;;5144858;27;19923;-62
2024/01/31 04:53:05;;;;;;;;;;;6.30;91.60;;;;;;5142736;27;19924;-63
2024/01/31 04:55:39;;;;;;;;;;;6.20;91.50;;;;;;5142380;27;19924;-61
2024/01/31 04:58:13;;;;;;;;;;;6.20;91.50;;;;;;5131985;27;19927;-61
2024/01/31 05:00:46;;;;;;;;;;;6.20;91.50;;;;;;5139929;27;19934;-61
2024/01/31 05:03:19;;;;;;;;;;;6.20;91.40;;;;;;5143866;27;19928;-62
2024/01/31 05:05:52;;;;;;;;;;;6.20;91.40;;;;;;5138674;27;20451;-61
2024/01/31 05:08:19;;;;;;;;;;;6.20;91.30;;;;;;5126804;27;19927;-62
2024/01/31 05:10:53;;;;;;;;;;;6.10;91.30;;;;;;5134791;27;19937;-61
2024/01/31 05:13:27;;;;;;;;;;;6.10;91.40;;;;;;5141326;27;19934;-62
2024/01/31 05:16:00;;;;;;;;;;;6.10;91.30;;;;;;5142133;27;19924;-61
2024/01/31 05:18:33;;;;;;;;;;;6.10;91.20;;;;;;5131785;27;19924;-60
2024/01/31 05:21:08;;;;;;;;;;;6.10;91.20;;;;;;5142640;27;19930;-60
2024/01/31 05:23:41;;;;;;;;;;;6.10;91.10;;;;;;5123821;27;19930;-61
2024/01/31 05:26:15;;;;;;;;;;;6.00;91.10;;;;;;5137988;27;19924;-61
2024/01/31 05:28:49;;;;;;;;;;;5.90;91.10;;;;;;5121932;27;20013;-60
2024/01/31 05:31:22;;;;;;;;;;;5.90;91.10;;;;;;5140880;27;19931;-60
2024/01/31 05:33:55;;;;;;;;;;;5.80;91.00;;;;;;5126418;27;19924;-60
2024/01/31 05:36:28;;;;;;;;;;;5.80;91.00;;;;;;5136310;27;19934;-61
2024/01/31 05:39:01;;;;;;;;;;;5.80;91.00;;;;;;5139932;27;21963;-61
2024/01/31 05:41:35;;;;;;;;;;;5.70;90.80;;;;;;5141378;27;19942;-61
2024/01/31 05:44:09;;;;;;;;;;;5.70;90.70;;;;;;5131126;27;19931;-61
2024/01/31 05:46:42;;;;;;;;;;;5.70;90.50;;;;;;5128003;27;19932;-60
2024/01/31 05:49:15;;;;;;;;;;;5.70;90.40;;;;;;5141580;27;19965;-61
2024/01/31 05:51:49;;;;;;;;;;;5.60;90.30;;;;;;5139239;27;20438;-61
2024/01/31 05:54:22;;;;;;;;;;;5.50;90.10;;;;;;5125343;27;19934;-61
2024/01/31 05:56:56;;;;;;;;;;;5.40;90.20;;;;;;5130085;27;19963;-60
2024/01/31 05:59:30;;;;;;;;;;;5.40;90.10;;;;;;5126672;27;19931;-59
2024/01/31 06:02:03;;;;;;;;;;;5.30;90.10;;;;;;5126327;27;19938;-60
2024/01/31 06:04:36;;;;;;;;;;;5.20;90.30;;;;;;5142200;27;19930;-63
2024/01/31 06:07:10;;;;;;;;;;;5.20;90.10;;;;;;5141336;27;19923;-61
2024/01/31 06:09:44;;;;;;;;;;;5.20;89.80;;;;;;5136383;27;19970;-60
2024/01/31 06:12:18;;;;;;;;;;;5.20;89.80;;;;;;5126305;27;19923;-60
2024/01/31 06:14:52;;;;;;;;;;;5.10;89.80;;;;;;5123677;27;19934;-60
2024/01/31 06:17:25;;;;;;;;;;;5.20;89.80;;;;;;5132602;27;19933;-61
2024/01/31 06:19:58;;;;;;;;;;;5.10;89.70;;;;;;5139117;27;20013;-61
2024/01/31 06:22:25;;;;;;;;;;;5.00;89.60;;;;;;5132762;27;20293;-61
2024/01/31 06:24:59;;;;;;;;;;;5.00;89.60;;;;;;5142421;27;19923;-62
2024/01/31 06:27:35;;;;;;;;;;;4.90;89.50;;;;;;5142472;27;20021;-60
2024/01/31 06:30:08;;;;;;;;;;;4.90;89.50;;;;;;5140174;27;20271;-74
2024/01/31 06:32:47;;;;;;;;;;;4.80;89.40;;;;;;5140823;27;20408;-73
2024/01/31 06:35:20;;;;;;;;;;;4.80;89.20;;;;;;5129477;27;19927;-75
2024/01/31 06:37:53;;;;;;;;;;;4.80;89.10;;;;;;5138099;27;20772;-77
2024/01/31 06:40:27;;;;;;;;;;;4.70;89.20;;;;;;5133537;27;20393;-75
2024/01/31 06:42:55;;;;;;;;;;;4.70;89.20;;;;;;5130594;27;19927;-75
2024/01/31 06:45:28;;;;;;;;;;;4.70;89.10;;;;;;5121831;28;19927;-72
2024/01/31 06:48:02;;;;;;;;;;;4.70;89.10;;;;;;5128045;27;19928;-76
2024/01/31 06:50:35;;;;;;;;;;;4.70;88.90;;;;;;5128998;27;19927;-73
2024/01/31 06:53:08;;;;;;;;;;;4.60;88.90;;;;;;5121782;28;20022;-75
2024/01/31 06:55:41;;;;;;;;;;;4.60;88.80;;;;;;5131101;27;19956;-75
2024/01/31 06:58:16;;;;;;;;;;;4.50;88.80;;;;;;5112828;28;19927;-75
2024/01/31 07:00:42;;;;;;;;;;;4.50;88.80;;;;;;5130091;27;19939;-76
2024/01/31 07:03:16;;;;;;;;;;;4.50;88.70;;;;;;5140844;27;19928;-79
2024/01/31 07:05:49;;;;;;;;;;;4.40;88.70;;;;;;5140884;27;20385;-74
2024/01/31 07:08:22;;;;;;;;;;;4.40;88.60;;;;;;5140946;27;20030;-73
2024/01/31 07:10:55;;;;;;;;;;;4.30;88.60;;;;;;5140385;27;19931;-75
2024/01/31 07:13:31;;;;;;;;;;;4.40;88.60;;;;;;5143439;27;19923;-75
2024/01/31 07:16:05;;;;;;;;;;;4.30;88.60;;;;;;5121797;28;19979;-74
2024/01/31 07:18:39;;;;;;;;;;;4.30;88.50;;;;;;5127194;27;19928;-73
2024/01/31 07:21:06;;;;;;;;;;;4.30;88.50;;;;;;5128549;27;19931;-74
2024/01/31 07:23:39;;;;;;;;;;;4.30;88.60;;;;;;5134675;27;19927;-75
2024/01/31 07:26:20;;;;;;;;;;;4.30;88.50;;;;;;5139710;27;19927;-77
2024/01/31 07:28:54;;;;;;;;;;;4.30;88.70;;;;;;5140668;27;19931;-76
2024/01/31 07:31:28;;;;;;;;;;;4.30;88.70;;;;;;5129889;27;19996;-78
2024/01/31 07:34:01;;;;;;;;;;;4.30;88.90;;;;;;5148651;27;20034;-76
2024/01/31 07:36:28;;;;;;;;;;;4.30;88.90;;;;;;5145141;27;19930;-75
2024/01/31 07:39:01;;;;;;;;;;;4.40;89.20;;;;;;5141302;27;20272;-76
2024/01/31 07:41:34;;;;;;;;;;;4.40;89.20;;;;;;5124976;27;19923;-72
2024/01/31 07:44:09;;;;;;;;;;;4.40;89.40;;;;;;5136973;27;19957;-73
2024/01/31 07:46:42;;;;;;;;;;;4.40;89.50;;;;;;5137735;27;19931;-73
2024/01/31 07:49:15;;;;;;;;;;;4.50;89.50;;;;;;5144033;27;19961;-73
2024/01/31 07:51:52;;;;;;;;;;;4.60;89.60;;;;;;5144845;27;20167;-73
2024/01/31 07:54:25;;;;;;;;;;;4.60;89.70;;;;;;5143370;27;19923;-74
2024/01/31 07:56:52;;;;;;;;;;;4.60;89.60;;;;;;5142894;27;19928;-73
2024/01/31 07:59:26;;;;;;;;;;;4.60;89.70;;;;;;5127771;27;20015;-74
2024/01/31 08:02:00;;;;;;;;;;;4.60;89.70;;;;;;5142308;27;19931;-74
2024/01/31 08:04:34;;;;;;;;;;;4.60;89.70;;;;;;5144033;27;19933;-74
2024/01/31 08:07:07;;;;;;;;;;;4.70;89.70;;;;;;5140584;27;19931;-74
2024/01/31 08:09:41;;;;;;;;;;;4.70;89.70;;;;;;5143014;27;20403;-73
2024/01/31 08:12:14;;;;;;;;;;;4.70;89.60;;;;;;5143499;27;19931;-73
2024/01/31 08:14:48;;;;;;;;;;;4.70;89.50;;;;;;5140892;27;19927;-73
2024/01/31 08:17:22;;;;;;;;;;;4.70;89.60;;;;;;5141893;27;19987;-72
2024/01/31 08:19:55;;;;;;;;;;;4.70;89.60;;;;;;5142648;27;19984;-72
2024/01/31 08:22:28;;;;;;;;;;;4.80;89.70;;;;;;5144108;27;19933;-74
2024/01/31 08:25:01;;;;;;;;;;;4.80;89.80;;;;;;5139910;27;19972;-73
2024/01/31 08:27:34;;;;;;;;;;;4.90;89.70;;;;;;5142651;27;19927;-74
2024/01/31 08:30:09;;;;;;;;;;;4.90;89.70;;;;;;5142678;27;20056;-73
2024/01/31 08:32:44;;;;;;;;;;;4.90;89.80;;;;;;5137646;27;19923;-73
2024/01/31 08:35:17;;;;;;;;;;;4.90;89.90;;;;;;5143044;27;19927;-73
2024/01/31 08:37:57;;;;;;;;;;;4.90;89.90;;;;;;5142020;27;19938;-73
2024/01/31 08:40:30;;;;;;;;;;;5.00;90.00;;;;;;5138895;27;19927;-73
2024/01/31 08:43:03;;;;;;;;;;;5.00;90.00;;;;;;5117617;27;19923;-73
2024/01/31 08:45:31;;;;;;;;;;;5.00;89.90;;;;;;5121309;27;19931;-73
2024/01/31 08:48:04;;;;;;;;;;;5.10;89.90;;;;;;5119728;27;20385;-73
2024/01/31 08:50:38;;;;;;;;;;;5.10;89.90;;;;;;5123914;27;19958;-62
2024/01/31 08:53:11;;;;;;;;;;;5.00;90.00;;;;;;5122304;27;21185;-62
2024/01/31 08:55:45;;;;;;;;;;;5.10;90.20;;;;;;5115356;27;20391;-62
2024/01/31 08:58:18;;;;;;;;;;;5.10;90.10;;;;;;5122565;27;19928;-62
2024/01/31 09:00:53;;;;;;;;;;;5.20;90.10;;;;;;5140505;27;19927;-62
2024/01/31 09:03:26;;;;;;;;;;;5.30;89.70;;;;;;5141052;27;19934;-62
2024/01/31 09:05:53;;;;;;;;;;;5.30;89.60;;;;;;5141798;27;20036;-61
2024/01/31 09:08:26;;;;;;;;;;;5.40;89.70;;;;;;5133516;27;20003;-61
2024/01/31 09:10:59;;;;;;;;;;;5.40;89.70;;;;;;5124906;27;19923;-62
2024/01/31 09:13:32;;;;;;;;;;;5.50;89.80;;;;;;5126325;27;19965;-62
2024/01/31 09:16:08;;;;;;;;;;;5.60;89.70;;;;;;5136006;27;19923;-62
2024/01/31 09:18:41;;;;;;;;;;;5.60;89.40;;;;;;5134595;27;19938;-61
2024/01/31 09:21:20;;;;;;;;;;;5.60;89.80;;;;;;5144474;27;19923;-62
2024/01/31 09:23:53;;;;;;;;;;;5.70;89.70;;;;;;5139603;27;20343;-63
2024/01/31 09:26:26;;;;;;;;;;;5.70;89.50;;;;;;5138703;27;19931;-61
2024/01/31 09:28:59;;;;;;;;;;;5.80;89.70;;;;;;5141970;27;19967;-61
2024/01/31 09:31:34;;;;;;;;;;;5.70;89.50;;;;;;5143167;27;19923;-62
2024/01/31 09:34:08;;;;;;;;;;;5.80;89.60;;;;;;5142303;27;19927;-62
2024/01/31 09:36:41;;;;;;;;;;;5.90;89.30;;;;;;5144420;27;19923;-63
2024/01/31 09:39:14;;;;;;;;;;;5.80;89.60;;;;;;5141956;27;19923;-62
2024/01/31 09:41:48;;;;;;;;;;;5.90;89.50;;;;;;5142575;27;19927;-63
2024/01/31 09:44:22;;;;;;;;;;;6.00;89.40;;;;;;5138831;27;19927;-62
2024/01/31 09:46:57;;;;;;;;;;;6.00;89.50;;;;;;5141611;27;19931;-61
2024/01/31 09:49:30;;;;;;;;;;;6.10;89.40;;;;;;5142358;27;19933;-62
2024/01/31 09:52:04;;;;;;;;;;;6.00;89.50;;;;;;5141865;27;20388;-60
2024/01/31 09:54:37;;;;;;;;;;;6.10;89.50;;;;;;5141783;27;19942;-62
2024/01/31 09:57:10;;;;;;;;;;;6.10;89.30;;;;;;5140869;27;19935;-62
2024/01/31 09:59:38;;;;;;;;;;;6.20;89.20;;;;;;5140742;27;19931;-61
2024/01/31 10:02:14;;;;;;;;;;;6.20;89.20;;;;;;5141506;27;20010;-72
2024/01/31 10:04:47;;;;;;;;;;;6.20;89.20;;;;;;5131534;27;20405;-73
2024/01/31 10:07:24;;;;;;;;;;;6.30;89.10;;;;;;5122665;27;20301;-74
2024/01/31 10:09:58;;;;;;;;;;;6.40;89.10;;;;;;5121126;27;19928;-72
2024/01/31 10:12:31;;;;;;;;;;;6.40;88.90;;;;;;5138565;27;19930;-72
2024/01/31 10:14:58;;;;;;;;;;;6.40;88.90;;;;;;5140310;27;19931;-72
2024/01/31 10:17:34;;;;;;;;;;;6.40;88.90;;;;;;5133556;27;20370;-72
2024/01/31 10:20:10;;;;;;;;;;;6.50;88.90;;;;;;5139814;27;19931;-73
2024/01/31 10:22:44;;;;;;;;;;;6.60;88.70;;;;;;5142560;27;19933;-72
2024/01/31 10:25:18;;;;;;;;;;;6.70;88.60;;;;;;5141556;27;19931;-72
2024/01/31 10:27:52;;;;;;;;;;;6.70;88.60;;;;;;5140103;27;19931;-72
2024/01/31 10:30:25;;;;;;;;;;;6.70;88.50;;;;;;5141485;27;20014;-73
2024/01/31 10:33:01;;;;;;;;;;;6.80;88.30;;;;;;5140871;27;19974;-73
2024/01/31 10:35:28;;;;;;;;;;;6.80;88.30;;;;;;5141910;27;19927;-73
2024/01/31 10:38:01;;;;;;;;;;;6.90;88.30;;;;;;5140619;27;19923;-72
2024/01/31 10:40:35;;;;;;;;;;;6.80;88.40;;;;;;5140586;27;19927;-74
2024/01/31 10:43:09;;;;;;;;;;;6.90;88.30;;;;;;5123873;27;19923;-72
2024/01/31 10:45:42;;;;;;;;;;;6.90;88.20;;;;;;5133462;27;19934;-72
2024/01/31 10:48:17;;;;;;;;;;;6.90;88.10;;;;;;5134601;27;19927;-74
2024/01/31 10:50:51;;;;;;;;;;;7.00;88.10;;;;;;5129470;27;19930;-74
2024/01/31 10:53:19;;;;;;;;;;;7.10;88.00;;;;;;5140803;27;19927;-74
2024/01/31 10:55:52;;;;;;;;;;;7.10;87.90;;;;;;5129736;27;19928;-73
2024/01/31 10:58:33;;;;;;;;;;;7.10;88.00;;;;;;5139290;27;19927;-74
2024/01/31 11:01:07;;;;;;;;;;;7.20;87.80;;;;;;5135366;27;19923;-75
2024/01/31 11:03:45;;;;;;;;;;;7.20;87.60;;;;;;5141530;27;19935;-74
2024/01/31 11:06:18;;;;;;;;;;;7.30;87.50;;;;;;5135025;27;19955;-74
2024/01/31 11:08:52;;;;;;;;;;;7.30;87.30;;;;;;5138962;27;19923;-74
2024/01/31 11:11:25;;;;;;;;;;;7.40;87.30;;;;;;5142584;27;19934;-63
2024/01/31 11:13:56;;;;;;;;;;;7.40;87.20;;;;;;5146207;27;19934;-63
2024/01/31 11:16:29;;;;;;;;;;;7.40;87.20;;;;;;5145468;27;20011;-63
2024/01/31 11:19:04;;;;;;;;;;;7.40;87.40;;;;;;5145685;27;19931;-63
2024/01/31 11:21:38;;;;;;;;;;;7.50;87.40;;;;;;5144995;27;19966;-63
2024/01/31 11:24:13;;;;;;;;;;;7.50;87.40;;;;;;5145162;27;19963;-62
2024/01/31 11:26:40;;;;;;;;;;;7.50;87.40;;;;;;5145932;27;19927;-62
2024/01/31 11:29:15;;;;;;;;;;;7.50;87.20;;;;;;5143642;27;19930;-62
2024/01/31 11:31:48;;;;;;;;;;;7.50;87.30;;;;;;5146007;27;20561;-63
2024/01/31 11:34:23;;;;;;;;;;;7.50;87.40;;;;;;5145002;27;20062;-63
2024/01/31 11:36:56;;;;;;;;;;;7.50;87.20;;;;;;5146564;27;19947;-65
2024/01/31 11:39:29;;;;;;;;;;;7.60;87.00;;;;;;5143584;27;19923;-62
2024/01/31 11:42:03;;;;;;;;;;;7.70;86.60;;;;;;5146336;27;19935;-64
2024/01/31 11:44:35;;;;;;;;;;;7.70;86.40;;;;;;5141787;27;19959;-63
2024/01/31 11:47:09;;;;;;;;;;;7.80;86.40;;;;;;5145674;27;19931;-61
2024/01/31 11:49:44;;;;;;;;;;;7.80;86.50;;;;;;5144780;27;19923;-62
2024/01/31 11:52:17;;;;;;;;;;;8.00;86.30;;;;;;5145043;27;19965;-63
2024/01/31 11:54:50;;;;;;;;;;;7.90;86.20;;;;;;5144403;27;19927;-62
2024/01/31 11:57:23;;;;;;;;;;;8.00;86.00;;;;;;5144001;27;19927;-63
2024/01/31 11:59:56;;;;;;;;;;;8.10;85.90;;;;;;5141327;27;19966;-63
2024/01/31 12:02:23;;;;;;;;;;;8.10;85.50;;;;;;5142423;27;19988;-63
2024/01/31 12:04:58;;;;;;;;;;;8.20;85.30;;;;;;5143491;27;20274;-63
2024/01/31 12:07:31;;;;;;;;;;;8.20;85.00;;;;;;5140571;27;20013;-62
2024/01/31 12:10:06;;;;;;;;;;;8.30;84.80;;;;;;5142564;27;20318;-62
2024/01/31 12:12:42;;;;;;;;;;;8.40;84.30;;;;;;5143047;27;19930;-64
2024/01/31 12:15:15;;;;;;;;;;;8.40;84.20;;;;;;5135860;27;20367;-63
2024/01/31 12:17:48;;;;;;;;;;;8.40;84.30;;;;;;5125939;27;20307;-62
2024/01/31 12:20:23;;;;;;;;;;;8.40;84.10;;;;;;5128459;27;19998;-61
2024/01/31 12:22:57;;;;;;;;;;;8.50;84.10;;;;;;5138102;27;19927;-61
2024/01/31 12:25:29;;;;;;;;;;;8.50;83.60;;;;;;5120009;27;20002;-61
2024/01/31 12:28:03;;;;;;;;;;;8.40;83.00;;;;;;5137805;27;19935;-62
2024/01/31 12:30:36;;;;;;;;;;;8.50;83.20;;;;;;5135006;27;19927;-62
2024/01/31 12:33:09;;;;;;;;;;;8.50;82.70;;;;;;5144433;27;19928;-62
2024/01/31 12:35:44;;;;;;;;;;;8.50;82.80;;;;;;5141797;27;20005;-62
2024/01/31 12:38:17;;;;;;;;;;;8.50;82.60;;;;;;5130493;27;19931;-61
2024/01/31 12:40:51;;;;;;;;;;;8.50;82.60;;;;;;5143009;27;19927;-62
2024/01/31 12:43:24;;;;;;;;;;;8.50;82.50;;;;;;5136910;27;19923;-62
2024/01/31 12:45:57;;;;;;;;;;;8.50;81.50;;;;;;5124414;27;19966;-64
2024/01/31 12:48:30;;;;;;;;;;;8.50;82.20;;;;;;5122215;27;19924;-60
2024/01/31 12:51:05;;;;;;;;;;;8.50;81.90;;;;;;5128873;27;19927;-62
2024/01/31 12:53:38;;;;;;;;;;;8.50;81.60;;;;;;5136844;27;19958;-62
2024/01/31 12:56:11;;;;;;;;;;;8.50;81.50;;;;;;5144069;27;20007;-60
2024/01/31 12:58:45;;;;;;;;;;;8.50;81.10;;;;;;5141262;27;20047;-61
2024/01/31 13:01:18;;;;;;;;;;;8.50;80.60;;;;;;5146217;27;19930;-62
2024/01/31 13:03:51;;;;;;;;;;;8.50;81.20;;;;;;5141506;27;19923;-61
2024/01/31 13:06:19;;;;;;;;;;;8.50;80.20;;;;;;5143922;27;19931;-60
2024/01/31 13:08:52;;;;;;;;;;;8.50;79.80;;;;;;5142145;27;19927;-62
2024/01/31 13:11:25;;;;;;;;;;;8.50;79.90;;;;;;5144041;27;20354;-61
2024/01/31 13:13:58;;;;;;;;;;;8.50;79.90;;;;;;5142257;27;20054;-62
2024/01/31 13:16:33;;;;;;;;;;;8.50;79.50;;;;;;5135594;27;19923;-62
2024/01/31 13:19:07;;;;;;;;;;;8.50;79.70;;;;;;5134960;27;20017;-62
2024/01/31 13:21:46;;;;;;;;;;;8.50;79.70;;;;;;5132519;27;20023;-61
2024/01/31 13:24:19;;;;;;;;;;;8.50;80.00;;;;;;5127854;27;19938;-63
2024/01/31 13:26:52;;;;;;;;;;;8.50;79.90;;;;;;5123828;27;19934;-61
2024/01/31 13:29:25;;;;;;;;;;;8.50;79.80;;;;;;5122064;27;20432;-61
2024/01/31 13:31:58;;;;;;;;;;;8.40;79.90;;;;;;5123492;27;19928;-62
2024/01/31 13:34:31;;;;;;;;;;;8.50;79.70;;;;;;5124158;27;19950;-62
2024/01/31 13:37:07;;;;;;;;;;;8.50;79.70;;;;;;5122865;27;19934;-62
2024/01/31 13:39:39;;;;;;;;;;;8.50;79.50;;;;;;5127931;27;19923;-65
2024/01/31 13:42:12;;;;;;;;;;;8.50;79.80;;;;;;5125677;27;20289;-62
2024/01/31 13:44:45;;;;;;;;;;;8.50;79.70;;;;;;5124474;27;20095;-63
2024/01/31 13:47:18;;;;;;;;;;;8.50;79.60;;;;;;5127838;27;19963;-62
2024/01/31 13:49:52;;;;;;;;;;;8.50;79.70;;;;;;5128848;27;19924;-62
2024/01/31 13:52:26;;;;;;;;;;;8.50;79.50;;;;;;5143003;27;19923;-63
2024/01/31 13:54:59;;;;;;;;;;;8.50;79.50;;;;;;5140500;27;19933;-64
2024/01/31 13:57:26;;;;;;;;;;;8.50;79.10;;;;;;5141959;27;19927;-62
2024/01/31 13:59:59;;;;;;;;;;;8.50;79.30;;;;;;5142033;27;20288;-63
2024/01/31 14:02:33;;;;;;;;;;;8.50;79.10;;;;;;5141219;27;20310;-66
2024/01/31 14:05:07;;;;;;;;;;;8.40;78.80;;;;;;5142732;27;19923;-62
2024/01/31 14:07:55;;;;;;;;;;;8.40;79.10;;;;;;5141476;27;21461;-62
2024/01/31 14:10:35;;;;;;;;;;;8.50;78.40;;;;;;5142032;27;20048;-63
2024/01/31 14:13:08;;;;;;;;;;;8.40;78.50;;;;;;5115827;27;19927;-62
2024/01/31 14:15:41;;;;;;;;;;;8.50;78.40;;;;;;5137507;27;20357;-62
2024/01/31 14:18:14;;;;;;;;;;;8.50;78.60;;;;;;5127823;27;19927;-61
2024/01/31 14:20:47;;;;;;;;;;;8.50;78.70;;;;;;5121511;27;19931;-61
2024/01/31 14:23:22;;;;;;;;;;;8.50;78.40;;;;;;5121800;27;19935;-61
2024/01/31 14:25:55;;;;;;;;;;;8.50;78.40;;;;;;5122365;27;19923;-62
2024/01/31 14:28:28;;;;;;;;;;;8.50;78.00;;;;;;5121161;27;19957;-62
2024/01/31 14:31:01;;;;;;;;;;;8.40;78.00;;;;;;5118582;27;19923;-64
2024/01/31 14:33:34;;;;;;;;;;;8.40;77.80;;;;;;5136892;27;19923;-62
2024/01/31 14:36:08;;;;;;;;;;;8.40;77.90;;;;;;5124987;27;20285;-63
2024/01/31 14:38:43;;;;;;;;;;;8.40;78.00;;;;;;5121628;27;19931;-61
2024/01/31 14:41:16;;;;;;;;;;;8.50;77.80;;;;;;5128073;27;19931;-62
2024/01/31 14:43:49;;;;;;;;;;;8.50;77.60;;;;;;5127786;27;19934;-63
2024/01/31 14:46:25;;;;;;;;;;;8.50;77.50;;;;;;5127303;27;19923;-62
2024/01/31 14:48:57;;;;;;;;;;;8.50;77.20;;;;;;5128817;27;19931;-62
2024/01/31 14:51:24;;;;;;;;;;;8.60;76.30;;;;;;5119860;27;19975;-62
2024/01/31 14:53:59;;;;;;;;;;;8.50;76.60;;;;;;5121475;27;19931;-63
2024/01/31 14:56:32;;;;;;;;;;;8.50;75.40;;;;;;5121477;27;20015;-62
2024/01/31 14:59:05;;;;;;;;;;;8.50;74.70;;;;;;5124511;27;19936;-62
2024/01/31 15:01:38;;;;;;;;;;;8.60;75.10;;;;;;5121687;27;20996;-62
2024/01/31 15:04:05;;;;;;;;;;;8.50;74.60;;;;;;5128626;27;19933;-63
2024/01/31 15:06:39;;;;;;;;;;;8.50;74.40;;;;;;5128091;27;19960;-63